createdAt,value
2022-09-10T00:02:00.283Z,2.90
2022-09-10T00:04:28.216Z,3.30
2022-09-10T00:06:55.761Z,3.05
2022-09-10T00:09:23.134Z,5.28
2022-09-10T00:11:50.625Z,3.67
2022-09-10T00:14:19.799Z,5.47
2022-09-10T00:16:47.283Z,5.35
2022-09-10T00:19:16.375Z,5.97
2022-09-10T00:21:44.417Z,3.22
2022-09-10T00:24:11.891Z,5.32
2022-09-10T00:26:39.930Z,3.58
2022-09-10T00:29:08.120Z,6.63
2022-09-10T00:31:36.068Z,5.80
2022-09-10T00:34:04.184Z,4.40
2022-09-10T00:36:34.571Z,4.85
2022-09-10T00:39:03.533Z,4.70
2022-09-10T00:41:31.494Z,5.85
2022-09-10T00:44:00.314Z,4.30
2022-09-10T00:46:41.176Z,4.03
2022-09-10T00:49:12.246Z,4.32
2022-09-10T00:51:41.190Z,5.70
2022-09-10T00:54:08.747Z,4.05
2022-09-10T00:56:36.262Z,7.15
2022-09-10T00:59:05.842Z,4.03
2022-09-10T01:01:33.646Z,4.38
2022-09-10T01:04:01.399Z,4.85
2022-09-10T01:06:28.837Z,3.60
2022-09-10T01:08:57.755Z,4.00
2022-09-10T01:11:34.726Z,6.82
2022-09-10T01:14:09.712Z,5.63
2022-09-10T01:16:40.533Z,4.80
2022-09-10T01:21:37.794Z,7.00
2022-09-10T01:24:13.733Z,4.95
2022-09-10T01:26:59.776Z,4.75
2022-09-10T01:29:32.505Z,3.70
2022-09-10T01:32:02.233Z,5.00
2022-09-10T01:34:32.805Z,5.47
2022-09-10T01:37:03.090Z,4.95
2022-09-10T01:39:30.531Z,5.35
2022-09-10T01:41:58.782Z,4.88
2022-09-10T01:44:43.395Z,5.55
2022-09-10T01:47:14.694Z,6.07
2022-09-10T01:49:45.867Z,7.07
2022-09-10T01:52:25.305Z,3.33
2022-09-10T01:55:00.186Z,3.72
2022-09-10T01:57:34.013Z,5.75
2022-09-10T02:00:07.174Z,4.85
2022-09-10T02:02:37.041Z,5.95
2022-09-10T02:05:06.131Z,5.05
2022-09-10T02:07:34.876Z,3.08
2022-09-10T02:10:02.744Z,4.97
2022-09-10T02:12:30.584Z,5.53
2022-09-10T02:14:58.659Z,4.35
2022-09-10T02:17:30.933Z,6.70
2022-09-10T02:19:59.300Z,5.70
2022-09-10T02:22:26.693Z,4.40
2022-09-10T02:24:54.109Z,4.05
2022-09-10T02:27:21.519Z,3.67
2022-09-10T02:29:49.421Z,5.85
2022-09-10T02:32:17.258Z,5.13
2022-09-10T02:34:45.932Z,4.57
2022-09-10T02:37:13.383Z,7.22
2022-09-10T02:39:41.089Z,5.35
2022-09-10T02:42:08.531Z,7.97
2022-09-10T02:44:35.903Z,5.57
2022-09-10T02:47:03.267Z,6.35
2022-09-10T02:49:31.675Z,4.95
2022-09-10T02:52:02.723Z,4.97
2022-09-10T02:54:30.171Z,6.15
2022-09-10T02:56:57.560Z,3.95
2022-09-10T02:59:25.017Z,4.43
2022-09-10T03:01:54.445Z,5.10
2022-09-10T03:04:21.887Z,6.53
2022-09-10T03:06:49.383Z,8.50
2022-09-10T03:09:18.213Z,5.18
2022-09-10T03:11:46.438Z,4.30
2022-09-10T03:14:20.027Z,4.38
2022-09-10T03:16:48.200Z,5.88
2022-09-10T03:19:15.889Z,4.18
2022-09-10T03:21:43.601Z,6.47
2022-09-10T03:24:13.391Z,4.82
2022-09-10T03:26:44.434Z,4.88
2022-09-10T03:29:11.951Z,5.50
2022-09-10T03:31:39.735Z,5.05
2022-09-10T03:34:08.769Z,5.93
2022-09-10T03:36:36.206Z,6.00
2022-09-10T03:39:03.596Z,5.88
2022-09-10T03:41:31.875Z,4.57
2022-09-10T03:44:00.616Z,6.85
2022-09-10T03:46:28.030Z,5.53
2022-09-10T03:48:55.627Z,5.00
2022-09-10T03:51:23.181Z,4.90
2022-09-10T03:53:50.549Z,4.80
2022-09-10T03:56:19.953Z,5.43
2022-09-10T03:58:49.057Z,9.02
2022-09-10T04:01:18.151Z,4.97
2022-09-10T04:03:45.600Z,6.32
2022-09-10T04:06:13.287Z,5.50
2022-09-10T04:08:40.731Z,5.32
2022-09-10T04:11:08.123Z,5.28
2022-09-10T04:13:35.482Z,6.70
2022-09-10T04:16:03.153Z,5.13
2022-09-10T04:18:35.063Z,3.95
2022-09-10T04:21:02.407Z,7.78
2022-09-10T04:23:30.071Z,6.28
2022-09-10T04:25:57.405Z,6.40
2022-09-10T04:28:25.071Z,7.93
2022-09-10T04:30:52.468Z,4.93
2022-09-10T04:33:19.962Z,5.85
2022-09-10T04:35:48.661Z,7.18
2022-09-10T04:38:16.042Z,4.70
2022-09-10T04:40:44.914Z,7.93
2022-09-10T04:43:12.306Z,8.60
2022-09-10T04:45:40.741Z,6.88
2022-09-10T04:48:08.124Z,5.65
2022-09-10T04:50:35.549Z,5.82
2022-09-10T04:53:04.287Z,8.95
2022-09-10T04:55:33.207Z,6.95
2022-09-10T04:58:00.525Z,13.30
2022-09-10T05:00:27.898Z,12.90
2022-09-10T05:02:55.228Z,9.30
2022-09-10T05:05:22.608Z,10.77
2022-09-10T05:07:50.219Z,7.38
2022-09-10T05:10:18.960Z,7.95
2022-09-10T05:12:46.275Z,5.68
2022-09-10T05:15:13.636Z,7.75
2022-09-10T05:17:40.976Z,6.47
2022-09-10T05:20:08.671Z,5.18
2022-09-10T05:22:40.282Z,8.02
2022-09-10T05:25:08.379Z,4.43
2022-09-10T05:27:37.257Z,9.60
2022-09-10T05:30:05.103Z,8.38
2022-09-10T05:32:32.887Z,5.75
2022-09-10T05:35:00.238Z,7.50
2022-09-10T05:37:27.574Z,7.18
2022-09-10T05:39:55.169Z,6.10
2022-09-10T05:42:22.786Z,11.13
2022-09-10T05:44:51.443Z,5.50
2022-09-10T05:47:18.785Z,5.45
2022-09-10T05:49:47.903Z,5.28
2022-09-10T05:52:15.302Z,5.72
2022-09-10T05:54:42.712Z,4.47
2022-09-10T05:57:10.032Z,4.20
2022-09-10T05:59:37.431Z,5.65
2022-09-10T06:02:06.305Z,7.95
2022-09-10T06:04:33.759Z,6.57
2022-09-10T06:07:01.806Z,6.53
2022-09-10T06:09:29.202Z,5.22
2022-09-10T06:11:56.574Z,6.38
2022-09-10T06:14:24.736Z,5.35
2022-09-10T06:16:53.532Z,7.15
2022-09-10T06:19:22.263Z,5.07
2022-09-10T06:21:50.531Z,5.93
2022-09-10T06:24:17.912Z,4.95
2022-09-10T06:26:45.259Z,5.47
2022-09-10T06:29:12.639Z,5.88
2022-09-10T06:31:39.997Z,5.43
2022-09-10T06:34:07.400Z,4.85
2022-09-10T06:36:36.102Z,5.30
2022-09-10T06:39:03.516Z,6.35
2022-09-10T06:41:31.015Z,4.50
2022-09-10T06:43:58.414Z,4.88
2022-09-10T06:47:01.655Z,4.80
2022-09-10T06:49:13.764Z,4.97
2022-09-10T06:51:42.471Z,5.30
2022-09-10T06:54:09.857Z,5.13
2022-09-10T06:56:37.234Z,9.00
2022-09-10T06:59:04.589Z,4.60
2022-09-10T07:01:32.015Z,2.88
2022-09-10T07:04:00.253Z,3.35
2022-09-10T07:06:28.499Z,5.20
2022-09-10T07:08:57.787Z,10.60
2022-09-10T07:11:25.788Z,6.13
2022-09-10T07:13:53.904Z,5.03
2022-09-10T07:16:21.345Z,6.28
2022-09-10T07:18:49.486Z,5.65
2022-09-10T07:21:17.336Z,4.07
2022-09-10T07:23:48.318Z,3.65
2022-09-10T07:26:18.543Z,4.88
2022-09-10T07:28:46.475Z,4.15
2022-09-10T07:31:15.058Z,4.35
2022-09-10T07:33:43.092Z,5.18
2022-09-10T07:36:11.281Z,4.05
2022-09-10T07:38:39.415Z,4.03
2022-09-10T07:41:07.518Z,4.15
2022-09-10T07:43:36.335Z,3.58
2022-09-10T07:46:04.500Z,3.95
2022-09-10T07:48:32.021Z,5.97
2022-09-10T07:51:03.258Z,4.60
2022-09-10T07:53:30.842Z,7.13
2022-09-10T07:56:02.239Z,3.40
2022-09-10T07:58:31.007Z,3.75
2022-09-10T08:01:00.642Z,5.60
2022-09-10T08:03:28.039Z,5.97
2022-09-10T08:05:55.795Z,3.53
2022-09-10T08:08:23.136Z,5.82
2022-09-10T08:10:50.511Z,3.30
2022-09-10T08:13:18.369Z,5.65
2022-09-10T08:15:45.791Z,6.38
2022-09-10T08:18:14.736Z,5.00
2022-09-10T08:20:42.121Z,5.00
2022-09-10T08:23:10.651Z,4.57
2022-09-10T08:25:38.025Z,4.57
2022-09-10T08:28:05.343Z,4.85
2022-09-10T08:30:32.766Z,3.45
2022-09-10T08:33:00.130Z,5.22
2022-09-10T08:35:28.865Z,4.53
2022-09-10T08:37:56.194Z,4.00
2022-09-10T08:40:23.688Z,4.10
2022-09-10T08:42:52.801Z,5.68
2022-09-10T08:45:22.005Z,4.40
2022-09-10T08:47:54.279Z,4.28
2022-09-10T08:50:33.208Z,6.32
2022-09-10T08:53:02.996Z,6.10
2022-09-10T08:55:32.131Z,4.82
2022-09-10T08:58:01.914Z,4.03
2022-09-10T09:00:32.151Z,3.65
2022-09-10T09:03:02.203Z,3.10
2022-09-10T09:05:37.033Z,4.60
2022-09-10T09:08:06.160Z,4.53
2022-09-10T09:10:37.287Z,3.42
2022-09-10T09:13:17.288Z,4.57
2022-09-10T09:15:51.587Z,2.38
2022-09-10T09:18:23.794Z,4.68
2022-09-10T09:20:55.642Z,4.20
2022-09-10T09:23:24.975Z,3.40
2022-09-10T09:25:53.880Z,5.50
2022-09-10T09:28:29.578Z,6.20
2022-09-10T09:30:59.235Z,6.68
2022-09-10T09:33:29.054Z,3.72
2022-09-10T09:35:59.285Z,7.88
2022-09-10T09:38:27.767Z,1.92
2022-09-10T09:40:57.599Z,5.60
2022-09-10T09:43:29.669Z,4.65
2022-09-10T09:45:57.072Z,3.45
2022-09-10T09:48:25.089Z,3.15
2022-09-10T09:50:53.990Z,4.80
2022-09-10T09:53:25.095Z,3.35
2022-09-10T09:55:54.571Z,4.68
2022-09-10T09:58:29.387Z,2.70
2022-09-10T10:01:07.010Z,4.38
2022-09-10T10:03:36.519Z,3.22
2022-09-10T10:06:04.951Z,4.70
2022-09-10T10:08:36.877Z,3.08
2022-09-10T10:11:04.730Z,5.00
2022-09-10T10:13:37.216Z,4.95
2022-09-10T10:16:14.742Z,4.60
2022-09-10T10:18:42.883Z,4.97
2022-09-10T10:21:17.880Z,4.10
2022-09-10T10:23:47.062Z,5.05
2022-09-10T10:26:32.103Z,5.13
2022-09-10T10:29:01.223Z,4.35
2022-09-10T10:31:40.124Z,5.28
2022-09-10T10:34:21.965Z,2.95
2022-09-10T10:36:56.232Z,5.75
2022-09-10T10:39:29.919Z,6.28
2022-09-10T10:42:04.456Z,4.30
2022-09-10T10:44:36.090Z,4.30
2022-09-10T10:47:12.531Z,4.82
2022-09-10T10:49:46.047Z,4.43
2022-09-10T10:52:19.239Z,3.13
2022-09-10T10:54:55.443Z,3.28
2022-09-10T10:57:27.330Z,3.50
2022-09-10T10:59:57.211Z,2.55
2022-09-10T11:02:33.229Z,3.83
2022-09-10T11:05:02.791Z,3.10
2022-09-10T11:07:32.301Z,3.70
2022-09-10T11:10:02.427Z,4.97
2022-09-10T11:12:32.305Z,3.63
2022-09-10T11:15:01.347Z,3.30
2022-09-10T11:17:30.549Z,4.22
2022-09-10T11:20:26.768Z,3.05
2022-09-10T11:22:50.160Z,3.38
2022-09-10T11:25:23.407Z,3.60
2022-09-10T11:27:53.051Z,5.10
2022-09-10T11:30:20.450Z,4.50
2022-09-10T11:32:51.815Z,4.55
2022-09-10T11:35:22.495Z,3.63
2022-09-10T11:37:53.340Z,3.13
2022-09-10T11:40:25.380Z,2.55
2022-09-10T11:42:54.014Z,2.28
2022-09-10T11:45:25.231Z,4.47
2022-09-10T11:47:56.419Z,2.47
2022-09-10T11:50:32.374Z,4.38
2022-09-10T11:53:02.198Z,3.05
2022-09-10T11:55:36.562Z,1.55
2022-09-10T11:58:06.820Z,4.10
2022-09-10T12:00:37.595Z,3.70
2022-09-10T12:03:26.595Z,3.08
2022-09-10T12:05:57.423Z,4.35
2022-09-10T12:08:30.693Z,2.63
2022-09-10T12:11:06.298Z,2.60
2022-09-10T12:13:37.141Z,2.33
2022-09-10T12:16:10.347Z,2.92
2022-09-10T12:18:42.884Z,1.80
2022-09-10T12:21:16.362Z,2.40
2022-09-10T12:23:44.410Z,2.03
2022-09-10T12:26:16.279Z,3.15
2022-09-10T12:29:01.336Z,4.15
2022-09-10T12:31:28.862Z,3.05
2022-09-10T12:34:12.298Z,2.58
2022-09-10T12:36:58.192Z,2.13
2022-09-10T12:39:26.211Z,2.38
2022-09-10T12:41:59.581Z,2.70
2022-09-10T12:44:28.297Z,3.92
2022-09-10T12:47:10.542Z,3.15
2022-09-10T12:49:46.426Z,2.58
2022-09-10T12:52:14.630Z,3.22
2022-09-10T12:54:48.766Z,2.55
2022-09-10T12:57:29.694Z,4.95
2022-09-10T13:00:12.891Z,2.70
2022-09-10T13:05:19.467Z,1.92
2022-09-10T13:07:49.166Z,2.25
2022-09-10T13:10:21.898Z,2.92
2022-09-10T13:12:52.988Z,6.03
2022-09-10T13:15:21.958Z,3.15
2022-09-10T13:18:07.898Z,2.60
2022-09-10T13:20:35.529Z,2.13
2022-09-10T13:23:03.850Z,2.70
2022-09-10T13:25:36.724Z,1.85
2022-09-10T13:28:26.284Z,2.92
2022-09-10T13:31:00.173Z,2.55
2022-09-10T13:33:30.072Z,2.30
2022-09-10T13:36:12.154Z,2.38
2022-09-10T13:38:59.671Z,2.70
2022-09-10T13:41:48.458Z,2.47
2022-09-10T13:44:22.022Z,3.65
2022-09-10T13:46:51.196Z,2.75
2022-09-10T13:49:20.705Z,2.53
2022-09-10T13:51:50.399Z,2.55
2022-09-10T13:54:25.781Z,3.72
2022-09-10T13:56:54.031Z,3.13
2022-09-10T13:59:30.138Z,2.80
2022-09-10T14:01:59.241Z,1.98
2022-09-10T14:04:27.858Z,2.55
2022-09-10T14:06:57.219Z,5.25
2022-09-10T14:09:24.626Z,4.53
2022-09-10T14:11:52.258Z,3.55
2022-09-10T14:14:21.836Z,3.30
2022-09-10T14:16:52.486Z,5.05
2022-09-10T14:19:22.371Z,4.88
2022-09-10T14:21:50.258Z,4.90
2022-09-10T14:24:29.013Z,3.67
2022-09-10T14:27:06.445Z,2.40
2022-09-10T14:29:33.931Z,3.30
2022-09-10T14:32:16.246Z,5.38
2022-09-10T14:34:44.996Z,2.88
2022-09-10T14:37:25.628Z,4.55
2022-09-10T14:39:53.082Z,6.57
2022-09-10T14:42:25.165Z,3.13
2022-09-10T14:44:52.627Z,4.38
2022-09-10T14:47:27.261Z,2.72
2022-09-10T14:50:16.024Z,3.65
2022-09-10T14:52:43.393Z,4.10
2022-09-10T14:55:10.914Z,3.55
2022-09-10T14:57:38.339Z,3.97
2022-09-10T15:00:06.178Z,3.55
2022-09-10T15:02:33.523Z,3.35
2022-09-10T15:05:02.294Z,4.07
2022-09-10T15:07:30.000Z,3.70
2022-09-10T15:09:57.370Z,2.60
2022-09-10T15:12:25.800Z,2.10
2022-09-10T15:14:53.211Z,4.22
2022-09-10T15:17:20.741Z,3.42
2022-09-10T15:19:48.395Z,2.40
2022-09-10T15:22:20.542Z,4.25
2022-09-10T15:25:08.629Z,3.08
2022-09-10T15:27:36.318Z,4.20
2022-09-10T15:30:05.213Z,6.05
2022-09-10T15:32:32.555Z,6.50
2022-09-10T15:34:59.974Z,6.25
2022-09-10T15:37:28.650Z,3.72
2022-09-10T15:39:58.340Z,3.63
2022-09-10T15:42:25.800Z,3.63
2022-09-10T15:44:53.155Z,4.05
2022-09-10T15:47:20.516Z,4.03
2022-09-10T15:49:48.073Z,3.42
2022-09-10T15:52:15.397Z,7.93
2022-09-10T15:54:44.122Z,3.92
2022-09-10T15:57:11.619Z,5.60
2022-09-10T15:59:38.950Z,4.85
2022-09-10T16:02:06.477Z,4.90
2022-09-10T16:04:35.888Z,2.75
2022-09-10T16:07:04.641Z,3.80
2022-09-10T16:09:32.330Z,3.53
2022-09-10T16:12:01.046Z,5.20
2022-09-10T16:14:28.996Z,5.40
2022-09-10T16:16:56.608Z,4.15
2022-09-10T16:19:23.976Z,3.65
2022-09-10T16:21:52.254Z,3.15
2022-09-10T16:24:19.750Z,3.20
2022-09-10T16:26:48.991Z,2.90
2022-09-10T16:29:19.433Z,3.85
2022-09-10T16:31:46.811Z,5.35
2022-09-10T16:34:16.026Z,4.38
2022-09-10T16:36:43.491Z,4.03
2022-09-10T16:39:12.631Z,3.35
2022-09-10T16:41:40.278Z,3.38
2022-09-10T16:44:07.829Z,4.68
2022-09-10T16:46:37.090Z,4.13
2022-09-10T16:49:05.244Z,5.30
2022-09-10T16:51:34.725Z,4.70
2022-09-10T16:54:03.193Z,3.97
2022-09-10T16:56:31.753Z,5.07
2022-09-10T16:58:59.070Z,3.85
2022-09-10T17:01:26.498Z,4.45
2022-09-10T17:03:55.184Z,3.50
2022-09-10T17:06:24.167Z,5.00
2022-09-10T17:08:52.133Z,4.00
2022-09-10T17:11:20.065Z,6.00
2022-09-10T17:13:47.470Z,6.03
2022-09-10T17:16:16.791Z,7.70
2022-09-10T17:18:44.922Z,5.30
2022-09-10T17:21:14.349Z,4.03
2022-09-10T17:23:41.800Z,9.02
2022-09-10T17:26:09.641Z,6.13
2022-09-10T17:28:37.298Z,6.72
2022-09-10T17:31:05.220Z,5.65
2022-09-10T17:33:33.356Z,5.18
2022-09-10T17:36:01.739Z,4.80
2022-09-10T17:38:34.792Z,5.43
2022-09-10T17:41:03.163Z,5.35
2022-09-10T17:43:31.557Z,7.47
2022-09-10T17:45:59.463Z,7.63
2022-09-10T17:48:29.754Z,6.32
2022-09-10T17:50:57.455Z,4.88
2022-09-10T17:53:25.024Z,4.28
2022-09-10T17:55:53.789Z,8.25
2022-09-10T17:58:22.198Z,4.80
2022-09-10T18:00:52.246Z,6.28
2022-09-10T18:03:19.582Z,5.30
2022-09-10T18:05:47.316Z,7.30
2022-09-10T18:08:14.716Z,5.80
2022-09-10T18:10:42.133Z,8.88
2022-09-10T18:13:10.878Z,5.22
2022-09-10T18:15:40.868Z,5.47
2022-09-10T18:18:09.363Z,5.82
2022-09-10T18:20:36.729Z,7.68
2022-09-10T18:23:04.182Z,9.05
2022-09-10T18:25:32.164Z,6.05
2022-09-10T18:28:01.378Z,7.07
2022-09-10T18:30:30.210Z,9.60
2022-09-10T18:32:57.585Z,8.25
2022-09-10T18:35:26.005Z,11.25
2022-09-10T18:37:54.012Z,8.90
2022-09-10T18:40:21.350Z,8.77
2022-09-10T18:42:48.720Z,7.15
2022-09-10T18:45:17.239Z,9.57
2022-09-10T18:47:45.911Z,6.80
2022-09-10T18:50:13.495Z,7.25
2022-09-10T18:52:41.495Z,6.65
2022-09-10T18:55:09.211Z,7.78
2022-09-10T18:57:36.627Z,9.95
2022-09-10T19:00:04.999Z,7.68
2022-09-10T19:02:32.463Z,8.70
2022-09-10T19:05:17.568Z,9.35
2022-09-10T19:07:46.609Z,6.63
2022-09-10T19:10:13.989Z,6.70
2022-09-10T19:12:41.355Z,8.38
2022-09-10T19:15:09.448Z,11.55
2022-09-10T19:17:36.849Z,8.52
2022-09-10T19:20:06.211Z,10.32
2022-09-10T19:22:33.780Z,7.57
2022-09-10T19:25:01.320Z,9.10
2022-09-10T19:27:28.951Z,7.38
2022-09-10T19:29:56.396Z,8.57
2022-09-10T19:32:23.779Z,8.45
2022-09-10T19:34:51.294Z,10.13
2022-09-10T19:37:20.731Z,8.30
2022-09-10T19:39:48.173Z,8.77
2022-09-10T19:42:16.327Z,8.43
2022-09-10T19:44:43.631Z,8.77
2022-09-10T19:47:10.991Z,10.30
2022-09-10T19:49:39.015Z,9.68
2022-09-10T19:52:06.392Z,9.25
2022-09-10T19:54:35.269Z,11.77
2022-09-10T19:57:02.640Z,10.88
2022-09-10T19:59:30.011Z,10.48
2022-09-10T20:01:57.451Z,9.52
2022-09-10T20:04:25.634Z,10.13
2022-09-10T20:06:52.995Z,9.32
2022-09-10T20:09:20.323Z,10.63
2022-09-10T20:11:49.043Z,9.85
2022-09-10T20:14:16.423Z,10.85
2022-09-10T20:16:45.595Z,11.00
2022-09-10T20:19:13.764Z,9.63
2022-09-10T20:21:42.069Z,10.13
2022-09-10T20:24:09.679Z,10.05
2022-09-10T20:26:39.053Z,10.63
2022-09-10T20:29:08.443Z,10.40
2022-09-10T20:31:36.665Z,12.73
2022-09-10T20:34:05.141Z,10.65
2022-09-10T20:36:32.998Z,11.70
2022-09-10T20:39:00.396Z,11.52
2022-09-10T20:41:29.917Z,14.20
2022-09-10T20:43:58.623Z,13.23
2022-09-10T20:46:28.259Z,15.55
2022-09-10T20:48:56.795Z,11.93
2022-09-10T20:51:24.196Z,12.90
2022-09-10T20:53:51.588Z,14.45
2022-09-10T20:56:19.576Z,15.23
2022-09-10T20:58:47.585Z,16.10
2022-09-10T21:01:17.384Z,17.77
2022-09-10T21:03:46.759Z,16.98
2022-09-10T21:06:14.618Z,13.98
2022-09-10T21:08:42.670Z,15.02
2022-09-10T21:11:12.251Z,15.13
2022-09-10T21:13:43.611Z,19.45
2022-09-10T21:16:12.599Z,14.35
2022-09-10T21:18:41.110Z,17.38
2022-09-10T21:21:11.527Z,15.43
2022-09-10T21:23:42.559Z,17.95
2022-09-10T21:26:09.906Z,22.10
2022-09-10T21:28:38.073Z,19.05
2022-09-10T21:31:06.011Z,16.85
2022-09-10T21:33:33.685Z,18.40
2022-09-10T21:36:02.490Z,19.17
2022-09-10T21:38:31.367Z,20.77
2022-09-10T21:40:59.247Z,15.57
2022-09-10T21:43:26.715Z,20.27
2022-09-10T21:45:54.118Z,16.13
2022-09-10T21:48:21.934Z,19.55
2022-09-10T21:50:49.531Z,14.93
2022-09-10T21:53:18.486Z,16.38
2022-09-10T21:55:47.148Z,16.83
2022-09-10T21:58:14.632Z,16.25
2022-09-10T22:00:42.009Z,15.07
2022-09-10T22:03:10.585Z,18.55
2022-09-10T22:05:38.234Z,17.17
2022-09-10T22:08:07.183Z,20.10
2022-09-10T22:10:34.754Z,18.27
2022-09-10T22:13:03.482Z,18.52
2022-09-10T22:15:30.824Z,19.63
2022-09-10T22:17:58.225Z,16.77
2022-09-10T22:20:25.630Z,16.38
2022-09-10T22:22:53.253Z,18.35
2022-09-10T22:25:20.671Z,19.40
2022-09-10T22:27:49.239Z,17.02
2022-09-10T22:30:18.196Z,15.55
2022-09-10T22:32:45.552Z,17.58
2022-09-10T22:35:13.001Z,16.70
2022-09-10T22:37:40.368Z,18.63
2022-09-10T22:40:08.275Z,15.45
2022-09-10T22:42:35.670Z,17.95
2022-09-10T22:45:02.990Z,17.35
2022-09-10T22:47:31.889Z,20.58
2022-09-10T22:49:59.283Z,16.48
2022-09-10T22:52:27.635Z,18.83
2022-09-10T22:54:54.971Z,21.30
2022-09-10T22:57:23.186Z,17.33
2022-09-10T22:59:50.915Z,19.98
2022-09-10T23:02:18.338Z,17.63
2022-09-10T23:04:48.135Z,16.33
2022-09-10T23:07:16.498Z,19.98
2022-09-10T23:09:43.851Z,18.25
2022-09-10T23:12:11.220Z,16.08
2022-09-10T23:14:39.263Z,19.02
2022-09-10T23:17:06.627Z,18.17
2022-09-10T23:19:34.307Z,20.63
2022-09-10T23:22:03.579Z,22.50
2022-09-10T23:24:30.982Z,21.42
2022-09-10T23:26:58.347Z,22.55
2022-09-10T23:29:25.748Z,20.10
2022-09-10T23:31:54.174Z,18.60
2022-09-10T23:34:21.728Z,18.88
2022-09-10T23:36:49.627Z,19.10
2022-09-10T23:39:19.946Z,17.33
2022-09-10T23:41:47.423Z,20.27
2022-09-10T23:44:14.907Z,20.80
2022-09-10T23:46:42.329Z,20.77
2022-09-10T23:49:09.726Z,15.85
2022-09-10T23:51:37.151Z,20.00
2022-09-10T23:54:04.616Z,16.17
2022-09-10T23:56:33.734Z,15.80
2022-09-10T23:59:01.087Z,16.20
